Time;durP1;ratioP1;P1;durP2;ratioP2;P2;SDS_P1;SDS_P2;PMS_P1;PMS_P2;Temp;Humidity;BMP_temperature;BMP_pressure;BME280_temperature;BME280_humidity;BME280_pressure;Samples;Min_cycle;Max_cycle;Signal;HPM_P1;HPM_P2
2023/09/04 00:00:21;;;;;;;;;;;21.90;55.50;;;;;;5090616;28;19928;-64
2023/09/04 00:02:48;;;;;;;;;;;21.90;55.50;;;;;;5090262;28;19931;-62
2023/09/04 00:05:17;;;;;;;;;;;21.90;55.40;;;;;;5089475;28;19934;-64
2023/09/04 00:07:44;;;;;;;;;;;21.90;55.50;;;;;;5093559;28;19924;-64
2023/09/04 00:10:11;;;;;;;;;;;21.90;55.40;;;;;;5090816;28;19927;-64
2023/09/04 00:12:38;;;;;;;;;;;21.90;55.50;;;;;;5092451;28;19931;-63
2023/09/04 00:15:05;;;;;;;;;;;21.90;55.50;;;;;;5092527;28;19932;-63
2023/09/04 00:17:33;;;;;;;;;;;21.90;55.50;;;;;;5116889;28;19935;-62
2023/09/04 00:20:00;;;;;;;;;;;21.90;55.50;;;;;;5091289;28;19974;-63
2023/09/04 00:22:27;;;;;;;;;;;21.90;55.50;;;;;;5089062;28;19959;-63
2023/09/04 00:24:54;;;;;;;;;;;21.90;55.60;;;;;;5095206;28;19956;-62
2023/09/04 00:27:21;;;;;;;;;;;21.90;55.50;;;;;;5111260;28;19932;-63
2023/09/04 00:29:47;;;;;;;;;;;21.90;55.50;;;;;;5089831;28;19928;-63
2023/09/04 00:32:14;;;;;;;;;;;21.90;55.60;;;;;;5085866;28;20277;-63
2023/09/04 00:34:42;;;;;;;;;;;21.90;55.50;;;;;;5092571;28;19924;-63
2023/09/04 00:37:10;;;;;;;;;;;21.90;55.50;;;;;;5090833;28;19924;-63
2023/09/04 00:39:36;;;;;;;;;;;21.90;55.50;;;;;;5090329;28;19924;-62
2023/09/04 00:42:03;;;;;;;;;;;21.90;55.50;;;;;;5088157;28;19950;-63
2023/09/04 00:44:30;;;;;;;;;;;21.90;55.50;;;;;;5091012;28;19924;-63
2023/09/04 00:46:57;;;;;;;;;;;21.90;55.50;;;;;;5095159;28;19989;-63
2023/09/04 00:49:23;;;;;;;;;;;21.90;55.50;;;;;;5095396;28;19924;-64
2023/09/04 00:51:52;;;;;;;;;;;21.90;55.50;;;;;;5094656;28;19923;-63
2023/09/04 00:54:19;;;;;;;;;;;21.90;55.50;;;;;;5095187;28;19924;-64
2023/09/04 00:56:47;;;;;;;;;;;21.90;55.50;;;;;;5094923;28;19928;-63
2023/09/04 00:59:13;;;;;;;;;;;21.90;55.50;;;;;;5092030;28;19928;-63
2023/09/04 01:01:40;;;;;;;;;;;21.90;55.50;;;;;;5095201;28;20155;-63
2023/09/04 01:04:07;;;;;;;;;;;21.90;55.50;;;;;;5092596;28;19924;-63
2023/09/04 01:06:34;;;;;;;;;;;21.90;55.50;;;;;;5096278;28;19928;-63
2023/09/04 01:09:03;;;;;;;;;;;21.90;55.50;;;;;;5095392;28;19993;-62
2023/09/04 01:11:31;;;;;;;;;;;21.90;55.50;;;;;;5116588;27;19934;-62
2023/09/04 01:13:58;;;;;;;;;;;21.90;55.50;;;;;;5102284;28;19977;-62
2023/09/04 01:16:25;;;;;;;;;;;21.90;55.50;;;;;;5092630;28;19931;-62
2023/09/04 01:18:52;;;;;;;;;;;21.90;55.50;;;;;;5093631;28;19924;-62
2023/09/04 01:21:20;;;;;;;;;;;21.90;55.40;;;;;;5098793;28;20158;-63
2023/09/04 01:23:47;;;;;;;;;;;21.90;55.40;;;;;;5105305;28;19923;-63
2023/09/04 01:26:15;;;;;;;;;;;21.90;55.40;;;;;;5120099;27;19930;-63
2023/09/04 01:28:44;;;;;;;;;;;21.90;55.40;;;;;;5092512;28;19932;-63
2023/09/04 01:31:12;;;;;;;;;;;21.90;55.40;;;;;;5094641;28;20060;-63
2023/09/04 01:33:40;;;;;;;;;;;21.90;55.40;;;;;;5092192;28;19955;-63
2023/09/04 01:36:07;;;;;;;;;;;21.90;55.40;;;;;;5092911;28;19928;-63
2023/09/04 01:38:35;;;;;;;;;;;21.90;55.40;;;;;;5092401;28;19969;-63
2023/09/04 01:41:04;;;;;;;;;;;21.90;55.30;;;;;;5096085;28;19982;-63
2023/09/04 01:43:31;;;;;;;;;;;21.80;55.20;;;;;;5094358;28;19928;-64
2023/09/04 01:45:57;;;;;;;;;;;21.80;55.20;;;;;;5093115;28;19928;-62
2023/09/04 01:48:24;;;;;;;;;;;21.80;55.20;;;;;;5091014;28;19937;-63
2023/09/04 01:50:51;;;;;;;;;;;21.80;55.20;;;;;;5093279;28;19953;-63
2023/09/04 01:53:17;;;;;;;;;;;21.90;55.20;;;;;;5099459;28;20014;-63
2023/09/04 01:55:46;;;;;;;;;;;21.80;55.10;;;;;;5092230;28;19928;-63
2023/09/04 01:58:12;;;;;;;;;;;21.80;55.10;;;;;;5092575;28;19935;-63
2023/09/04 02:00:39;;;;;;;;;;;21.80;55.10;;;;;;5092365;28;19928;-64
2023/09/04 02:03:06;;;;;;;;;;;21.80;55.10;;;;;;5095947;28;19928;-64
2023/09/04 02:05:33;;;;;;;;;;;21.80;55.00;;;;;;5092143;28;19989;-65
2023/09/04 02:07:59;;;;;;;;;;;21.80;55.00;;;;;;5091943;28;20297;-63
2023/09/04 02:10:27;;;;;;;;;;;21.80;55.00;;;;;;5099274;28;19936;-64
2023/09/04 02:12:56;;;;;;;;;;;21.80;54.90;;;;;;5091823;28;19924;-64
2023/09/04 02:15:23;;;;;;;;;;;21.80;54.90;;;;;;5108726;28;19924;-64
2023/09/04 02:17:51;;;;;;;;;;;21.80;54.90;;;;;;5090676;28;19931;-64
2023/09/04 02:20:18;;;;;;;;;;;21.80;54.90;;;;;;5095048;28;19924;-65
2023/09/04 02:22:45;;;;;;;;;;;21.80;54.80;;;;;;5099072;28;19931;-63
2023/09/04 02:25:11;;;;;;;;;;;21.80;54.80;;;;;;5095032;28;19924;-64
2023/09/04 02:27:38;;;;;;;;;;;21.80;54.80;;;;;;5092378;28;19969;-64
2023/09/04 02:30:08;;;;;;;;;;;21.70;54.70;;;;;;5092488;28;19924;-64
2023/09/04 02:32:35;;;;;;;;;;;21.80;54.80;;;;;;5092269;28;20370;-64
2023/09/04 02:35:02;;;;;;;;;;;21.80;54.80;;;;;;5115263;27;19985;-64
2023/09/04 02:37:28;;;;;;;;;;;21.70;54.60;;;;;;5091780;28;19928;-64
2023/09/04 02:39:56;;;;;;;;;;;21.80;54.70;;;;;;5093035;28;19924;-64
2023/09/04 02:42:22;;;;;;;;;;;21.70;54.60;;;;;;5098024;28;19927;-64
2023/09/04 02:44:49;;;;;;;;;;;21.70;54.60;;;;;;5092143;28;19924;-65
2023/09/04 02:47:17;;;;;;;;;;;21.70;54.60;;;;;;5092558;28;19924;-64
2023/09/04 02:49:44;;;;;;;;;;;21.70;54.60;;;;;;5092497;28;19924;-64
2023/09/04 02:52:11;;;;;;;;;;;21.70;54.60;;;;;;5091484;28;19978;-64
2023/09/04 02:54:38;;;;;;;;;;;21.70;54.60;;;;;;5087866;28;19928;-64
2023/09/04 02:57:05;;;;;;;;;;;21.70;54.50;;;;;;5094512;28;19947;-64
2023/09/04 02:59:33;;;;;;;;;;;21.70;54.60;;;;;;5101467;28;19924;-64
2023/09/04 03:02:00;;;;;;;;;;;21.70;54.60;;;;;;5096841;28;20001;-64
2023/09/04 03:04:28;;;;;;;;;;;21.70;54.50;;;;;;5092835;28;19928;-64
2023/09/04 03:06:55;;;;;;;;;;;21.70;54.50;;;;;;5092442;28;19973;-64
2023/09/04 03:09:22;;;;;;;;;;;21.70;54.50;;;;;;5095184;28;19939;-65
2023/09/04 03:11:49;;;;;;;;;;;21.70;54.50;;;;;;5092341;28;19925;-64
2023/09/04 03:14:15;;;;;;;;;;;21.70;54.50;;;;;;5117818;27;19924;-64
2023/09/04 03:16:42;;;;;;;;;;;21.70;54.50;;;;;;5091300;28;20019;-64
2023/09/04 03:19:09;;;;;;;;;;;21.70;54.50;;;;;;5095596;28;19928;-64
2023/09/04 03:21:37;;;;;;;;;;;21.70;54.40;;;;;;5095535;28;19924;-64
2023/09/04 03:24:04;;;;;;;;;;;21.70;54.40;;;;;;5092053;28;19943;-64
2023/09/04 03:26:31;;;;;;;;;;;21.70;54.40;;;;;;5093979;28;19960;-63
2023/09/04 03:28:58;;;;;;;;;;;21.70;54.40;;;;;;5090919;28;19928;-63
2023/09/04 03:31:25;;;;;;;;;;;21.70;54.40;;;;;;5092230;28;19960;-64
2023/09/04 03:33:51;;;;;;;;;;;21.70;54.40;;;;;;5090772;28;19924;-65
2023/09/04 03:36:18;;;;;;;;;;;21.70;54.40;;;;;;5074372;28;20023;-64
2023/09/04 03:38:46;;;;;;;;;;;21.70;54.40;;;;;;5110758;27;19937;-65
2023/09/04 03:41:13;;;;;;;;;;;21.70;54.30;;;;;;5097405;28;19924;-64
2023/09/04 03:43:40;;;;;;;;;;;21.70;54.30;;;;;;5087633;28;20012;-64
2023/09/04 03:46:11;;;;;;;;;;;21.70;54.30;;;;;;5095486;28;19928;-63
2023/09/04 03:48:38;;;;;;;;;;;21.70;54.80;;;;;;5090589;28;20004;-65
2023/09/04 03:51:05;;;;;;;;;;;21.70;54.20;;;;;;5100105;28;19924;-64
2023/09/04 03:53:32;;;;;;;;;;;21.70;54.20;;;;;;5090102;28;19924;-64
2023/09/04 03:56:06;;;;;;;;;;;21.70;54.20;;;;;;5091097;28;19928;-64
2023/09/04 03:58:33;;;;;;;;;;;21.70;54.10;;;;;;5097014;28;19927;-64
2023/09/04 04:00:59;;;;;;;;;;;21.70;54.10;;;;;;5091031;28;19974;-64
2023/09/04 04:03:26;;;;;;;;;;;21.70;54.10;;;;;;5091368;28;19928;-64
2023/09/04 04:05:53;;;;;;;;;;;21.60;54.00;;;;;;5091608;28;19928;-64
2023/09/04 04:08:20;;;;;;;;;;;21.60;54.00;;;;;;5092552;28;19984;-64
2023/09/04 04:10:46;;;;;;;;;;;21.60;54.00;;;;;;5090169;28;19931;-64
2023/09/04 04:13:15;;;;;;;;;;;21.60;54.00;;;;;;5089878;28;19924;-64
2023/09/04 04:15:42;;;;;;;;;;;21.60;54.00;;;;;;5093807;28;19939;-64
2023/09/04 04:18:09;;;;;;;;;;;21.60;54.00;;;;;;5090013;28;19935;-64
2023/09/04 04:20:35;;;;;;;;;;;21.60;54.00;;;;;;5121866;28;20327;-65
2023/09/04 04:23:02;;;;;;;;;;;21.60;53.90;;;;;;5107353;28;19953;-65
2023/09/04 04:25:29;;;;;;;;;;;21.60;53.90;;;;;;5090842;28;19928;-63
2023/09/04 04:27:56;;;;;;;;;;;21.60;53.90;;;;;;5093894;28;19931;-64
2023/09/04 04:30:24;;;;;;;;;;;21.60;53.90;;;;;;5091016;28;19931;-64
2023/09/04 04:32:51;;;;;;;;;;;21.60;53.90;;;;;;5089662;28;19924;-64
2023/09/04 04:35:18;;;;;;;;;;;21.60;53.90;;;;;;5090024;28;19924;-64
2023/09/04 04:37:45;;;;;;;;;;;21.60;53.90;;;;;;5100411;28;19928;-64
2023/09/04 04:40:12;;;;;;;;;;;21.60;53.90;;;;;;5094207;28;19928;-65
2023/09/04 04:42:38;;;;;;;;;;;21.60;53.90;;;;;;5094013;28;19931;-64
2023/09/04 04:45:06;;;;;;;;;;;21.60;53.90;;;;;;5090603;28;20017;-63
2023/09/04 04:47:34;;;;;;;;;;;21.60;53.90;;;;;;5106351;28;19928;-64
2023/09/04 04:50:00;;;;;;;;;;;21.60;53.90;;;;;;5093534;28;19973;-64
2023/09/04 04:52:27;;;;;;;;;;;21.60;53.90;;;;;;5091289;28;19923;-63
2023/09/04 04:54:54;;;;;;;;;;;21.60;53.90;;;;;;5091704;28;19954;-66
2023/09/04 04:57:21;;;;;;;;;;;21.60;53.80;;;;;;5095355;28;19928;-65
2023/09/04 04:59:47;;;;;;;;;;;21.60;53.90;;;;;;5097644;28;19931;-65
2023/09/04 05:02:16;;;;;;;;;;;21.60;53.90;;;;;;5091660;28;19937;-65
2023/09/04 05:04:45;;;;;;;;;;;21.60;54.00;;;;;;5097916;28;19955;-65
2023/09/04 05:07:12;;;;;;;;;;;21.60;54.10;;;;;;5091419;28;19993;-65
2023/09/04 05:09:39;;;;;;;;;;;21.60;54.00;;;;;;5091642;28;19928;-65
2023/09/04 05:12:06;;;;;;;;;;;21.60;54.00;;;;;;5088909;28;19929;-64
2023/09/04 05:14:33;;;;;;;;;;;21.60;54.10;;;;;;5095170;28;19928;-60
2023/09/04 05:17:00;;;;;;;;;;;21.60;54.10;;;;;;5103389;28;19932;-60
2023/09/04 05:19:27;;;;;;;;;;;21.70;54.20;;;;;;5103985;28;19928;-59
2023/09/04 05:21:55;;;;;;;;;;;21.70;54.30;;;;;;5082129;28;19928;-60
2023/09/04 05:24:22;;;;;;;;;;;21.70;54.30;;;;;;5090155;28;19924;-60
2023/09/04 05:26:49;;;;;;;;;;;21.70;54.30;;;;;;5106543;28;19931;-58
2023/09/04 05:29:15;;;;;;;;;;;21.70;54.40;;;;;;5081036;28;19924;-58
2023/09/04 05:31:42;;;;;;;;;;;21.70;54.30;;;;;;5090528;28;19974;-61
2023/09/04 05:34:09;;;;;;;;;;;21.70;54.40;;;;;;5109132;28;20218;-59
2023/09/04 05:36:35;;;;;;;;;;;21.70;54.30;;;;;;5101538;28;19924;-60
2023/09/04 05:39:04;;;;;;;;;;;21.70;54.40;;;;;;5093286;28;19931;-59
2023/09/04 05:41:31;;;;;;;;;;;21.70;54.40;;;;;;5102103;28;19931;-58
2023/09/04 05:43:58;;;;;;;;;;;21.80;54.50;;;;;;5094502;28;19924;-61
2023/09/04 05:46:24;;;;;;;;;;;21.80;54.50;;;;;;5105258;28;19973;-59
2023/09/04 05:48:51;;;;;;;;;;;21.80;55.10;;;;;;5097864;28;19928;-60
2023/09/04 05:51:18;;;;;;;;;;;21.80;54.50;;;;;;5100346;28;19924;-59
2023/09/04 05:53:45;;;;;;;;;;;21.80;54.50;;;;;;5092849;28;19928;-58
2023/09/04 05:56:14;;;;;;;;;;;21.80;54.50;;;;;;5102257;28;19924;-59
2023/09/04 05:58:45;;;;;;;;;;;21.80;54.50;;;;;;5100688;28;19924;-59
2023/09/04 06:01:11;;;;;;;;;;;21.80;54.50;;;;;;5109757;28;20015;-59
2023/09/04 06:03:38;;;;;;;;;;;21.80;54.50;;;;;;5103884;28;19946;-59
2023/09/04 06:06:05;;;;;;;;;;;21.80;54.50;;;;;;5092838;28;20449;-58
2023/09/04 06:08:33;;;;;;;;;;;21.80;54.50;;;;;;5102697;28;19924;-62
2023/09/04 06:10:59;;;;;;;;;;;21.80;54.50;;;;;;5102629;28;20076;-62
2023/09/04 06:13:27;;;;;;;;;;;21.80;54.50;;;;;;5110514;28;20559;-60
2023/09/04 06:15:54;;;;;;;;;;;21.80;54.50;;;;;;5109528;28;19943;-60
2023/09/04 06:18:21;;;;;;;;;;;21.80;54.50;;;;;;5100935;28;19974;-59
2023/09/04 06:20:48;;;;;;;;;;;21.90;54.60;;;;;;5109519;28;19923;-58
2023/09/04 06:23:14;;;;;;;;;;;21.90;54.60;;;;;;5101013;28;19928;-62
2023/09/04 06:25:42;;;;;;;;;;;21.90;54.60;;;;;;5104470;28;19931;-60
2023/09/04 06:28:10;;;;;;;;;;;21.90;54.60;;;;;;5127339;27;19924;-59
2023/09/04 06:30:38;;;;;;;;;;;21.90;54.60;;;;;;5092620;28;19973;-59
2023/09/04 06:33:05;;;;;;;;;;;21.90;54.60;;;;;;5095410;28;19964;-61
2023/09/04 06:35:31;;;;;;;;;;;21.90;54.60;;;;;;5092412;28;19932;-59
2023/09/04 06:37:58;;;;;;;;;;;21.90;54.60;;;;;;5093419;28;19924;-59
2023/09/04 06:40:25;;;;;;;;;;;21.90;54.60;;;;;;5087913;28;19925;-59
2023/09/04 06:42:53;;;;;;;;;;;21.90;54.60;;;;;;5107226;28;19928;-60
2023/09/04 06:45:19;;;;;;;;;;;21.90;54.60;;;;;;5092986;28;19931;-58
2023/09/04 06:47:48;;;;;;;;;;;21.90;54.60;;;;;;5109093;28;19923;-59
2023/09/04 06:50:15;;;;;;;;;;;21.90;54.60;;;;;;5100275;28;19924;-59
2023/09/04 06:52:42;;;;;;;;;;;21.90;54.60;;;;;;5105216;28;19924;-59
2023/09/04 06:55:09;;;;;;;;;;;21.90;54.60;;;;;;5091848;28;19981;-61
2023/09/04 06:57:36;;;;;;;;;;;21.90;55.10;;;;;;5093108;28;19931;-59
2023/09/04 07:00:06;;;;;;;;;;;21.90;54.60;;;;;;5094018;28;19978;-62
2023/09/04 07:02:33;;;;;;;;;;;21.90;54.60;;;;;;5091875;28;19968;-59
2023/09/04 07:05:01;;;;;;;;;;;21.90;54.60;;;;;;5099976;28;19973;-59
2023/09/04 07:07:28;;;;;;;;;;;21.90;54.60;;;;;;5105810;28;19931;-59
2023/09/04 07:09:55;;;;;;;;;;;21.90;54.60;;;;;;5095978;28;19953;-62
2023/09/04 07:12:22;;;;;;;;;;;21.90;54.60;;;;;;5107581;28;19924;-61
2023/09/04 07:14:48;;;;;;;;;;;21.90;54.60;;;;;;5099697;28;19924;-59
2023/09/04 07:17:15;;;;;;;;;;;21.90;54.60;;;;;;5103779;28;19969;-61
2023/09/04 07:19:42;;;;;;;;;;;21.90;54.60;;;;;;5105668;28;19924;-59
2023/09/04 07:22:10;;;;;;;;;;;21.90;54.60;;;;;;5102381;28;19924;-62
2023/09/04 07:24:37;;;;;;;;;;;21.90;54.60;;;;;;5127305;27;19931;-60
2023/09/04 07:27:04;;;;;;;;;;;21.90;54.60;;;;;;5103311;28;19927;-59
2023/09/04 07:29:31;;;;;;;;;;;21.90;54.60;;;;;;5104377;28;20007;-62
2023/09/04 07:31:59;;;;;;;;;;;22.00;54.70;;;;;;5099221;28;19923;-59
2023/09/04 07:34:26;;;;;;;;;;;22.00;54.70;;;;;;5106887;28;19931;-59
2023/09/04 07:36:52;;;;;;;;;;;21.90;54.70;;;;;;5090986;28;19928;-60
2023/09/04 07:39:21;;;;;;;;;;;22.00;54.70;;;;;;5099252;28;19928;-60
2023/09/04 07:41:47;;;;;;;;;;;21.90;54.60;;;;;;5092205;28;19923;-59
2023/09/04 07:44:14;;;;;;;;;;;21.90;54.60;;;;;;5095026;28;19931;-60
2023/09/04 07:46:41;;;;;;;;;;;22.00;54.70;;;;;;5102589;28;19961;-59
2023/09/04 07:49:07;;;;;;;;;;;22.00;54.70;;;;;;5099633;28;19928;-60
2023/09/04 07:51:34;;;;;;;;;;;22.00;54.70;;;;;;5089606;28;19928;-60
2023/09/04 07:54:01;;;;;;;;;;;22.00;54.70;;;;;;5090598;28;19935;-60
2023/09/04 07:56:29;;;;;;;;;;;22.00;54.70;;;;;;5098972;28;19947;-59
2023/09/04 07:58:56;;;;;;;;;;;22.00;54.70;;;;;;5099031;28;19975;-60
2023/09/04 08:01:23;;;;;;;;;;;22.00;54.70;;;;;;5090284;28;19928;-59
2023/09/04 08:03:50;;;;;;;;;;;22.00;54.70;;;;;;5090097;28;19928;-65
2023/09/04 08:06:16;;;;;;;;;;;22.00;54.70;;;;;;5093838;28;19940;-58
2023/09/04 08:08:43;;;;;;;;;;;22.00;54.70;;;;;;5111653;27;19928;-58
2023/09/04 08:11:10;;;;;;;;;;;22.00;54.70;;;;;;5106756;28;20011;-61
2023/09/04 08:13:38;;;;;;;;;;;22.00;54.70;;;;;;5096807;28;19928;-58
2023/09/04 08:16:05;;;;;;;;;;;22.00;54.70;;;;;;5092118;28;19928;-60
2023/09/04 08:18:32;;;;;;;;;;;22.00;54.70;;;;;;5106946;28;19935;-61
2023/09/04 08:20:59;;;;;;;;;;;22.00;54.70;;;;;;5104582;28;19932;-60
2023/09/04 08:23:25;;;;;;;;;;;22.00;54.70;;;;;;5090646;28;19974;-59
2023/09/04 08:25:57;;;;;;;;;;;22.00;54.70;;;;;;5091915;28;19931;-60
2023/09/04 08:28:24;;;;;;;;;;;22.00;54.70;;;;;;5091568;28;19932;-60
2023/09/04 08:30:52;;;;;;;;;;;22.00;54.70;;;;;;5100105;28;19978;-59
2023/09/04 08:33:19;;;;;;;;;;;22.00;54.70;;;;;;5110499;28;19928;-59
2023/09/04 08:35:45;;;;;;;;;;;22.00;54.70;;;;;;5104881;28;19924;-59
2023/09/04 08:38:12;;;;;;;;;;;22.00;54.70;;;;;;5113327;28;19928;-60
2023/09/04 08:40:40;;;;;;;;;;;22.00;54.70;;;;;;5089742;28;19928;-59
2023/09/04 08:43:07;;;;;;;;;;;22.00;54.70;;;;;;5107100;28;19930;-59
2023/09/04 08:45:34;;;;;;;;;;;22.00;54.70;;;;;;5090145;28;19928;-59
2023/09/04 08:48:03;;;;;;;;;;;22.00;54.70;;;;;;5098620;28;19996;-60
2023/09/04 08:50:29;;;;;;;;;;;22.00;54.70;;;;;;5093256;28;19924;-59
2023/09/04 08:52:56;;;;;;;;;;;22.00;54.70;;;;;;5088487;28;19924;-63
2023/09/04 08:55:23;;;;;;;;;;;22.00;54.70;;;;;;5088698;28;19932;-59
2023/09/04 08:57:49;;;;;;;;;;;22.00;54.70;;;;;;5080823;28;19928;-59
2023/09/04 09:00:17;;;;;;;;;;;22.00;54.80;;;;;;5096705;28;19924;-61
2023/09/04 09:02:44;;;;;;;;;;;22.00;54.70;;;;;;5089049;28;19924;-59
2023/09/04 09:05:12;;;;;;;;;;;22.00;54.70;;;;;;5091812;28;20014;-60
2023/09/04 09:07:39;;;;;;;;;;;22.00;54.70;;;;;;5109443;28;19931;-60
2023/09/04 09:10:06;;;;;;;;;;;22.00;54.70;;;;;;5119179;27;20014;-58
2023/09/04 09:12:33;;;;;;;;;;;22.10;54.80;;;;;;5099365;28;20286;-60
2023/09/04 09:15:00;;;;;;;;;;;22.10;54.80;;;;;;5094004;28;19932;-58
2023/09/04 09:17:27;;;;;;;;;;;22.00;54.70;;;;;;5102134;28;20023;-61
2023/09/04 09:19:53;;;;;;;;;;;22.10;54.80;;;;;;5098106;28;19920;-59
2023/09/04 09:22:22;;;;;;;;;;;22.00;54.70;;;;;;5093691;28;19924;-60
2023/09/04 09:24:49;;;;;;;;;;;22.00;54.70;;;;;;5092953;28;19924;-59
2023/09/04 09:27:16;;;;;;;;;;;22.10;54.80;;;;;;5094748;28;20112;-59
2023/09/04 09:29:43;;;;;;;;;;;22.10;54.80;;;;;;5093304;28;19928;-60
2023/09/04 09:32:10;;;;;;;;;;;22.10;54.80;;;;;;5104111;28;19938;-59
2023/09/04 09:34:36;;;;;;;;;;;22.10;54.80;;;;;;5104727;28;19924;-60
2023/09/04 09:37:03;;;;;;;;;;;22.00;54.70;;;;;;5102195;28;19924;-60
2023/09/04 09:39:33;;;;;;;;;;;22.10;54.80;;;;;;5093489;28;19984;-59
2023/09/04 09:42:00;;;;;;;;;;;22.10;54.80;;;;;;5103854;28;19924;-62
2023/09/04 09:44:29;;;;;;;;;;;22.10;54.80;;;;;;5109390;28;19924;-59
2023/09/04 09:46:56;;;;;;;;;;;22.10;54.80;;;;;;5093903;28;19928;-60
2023/09/04 09:49:23;;;;;;;;;;;22.10;54.80;;;;;;5117513;27;19931;-62
2023/09/04 09:51:51;;;;;;;;;;;22.10;54.80;;;;;;5094293;28;19928;-59
2023/09/04 09:54:19;;;;;;;;;;;22.10;54.80;;;;;;5084867;28;19924;-59
2023/09/04 09:56:47;;;;;;;;;;;22.10;54.80;;;;;;5092485;28;19928;-61
2023/09/04 09:59:13;;;;;;;;;;;22.10;54.80;;;;;;5100403;28;19953;-59
2023/09/04 10:01:40;;;;;;;;;;;22.10;54.80;;;;;;5092340;28;19931;-59
2023/09/04 10:04:08;;;;;;;;;;;22.10;54.80;;;;;;5103725;28;19924;-60
2023/09/04 10:06:35;;;;;;;;;;;22.10;54.80;;;;;;5097319;28;19981;-59
2023/09/04 10:09:01;;;;;;;;;;;22.10;54.80;;;;;;5126619;27;19924;-62
2023/09/04 10:11:28;;;;;;;;;;;22.10;54.80;;;;;;5092450;28;20300;-59
2023/09/04 10:13:59;;;;;;;;;;;22.10;54.80;;;;;;5091588;28;19924;-62
2023/09/04 10:16:29;;;;;;;;;;;22.10;54.80;;;;;;5098062;28;19924;-59
2023/09/04 10:18:57;;;;;;;;;;;22.10;54.80;;;;;;5101440;28;19924;-59
2023/09/04 10:21:26;;;;;;;;;;;22.10;54.80;;;;;;5102136;28;19928;-58
2023/09/04 10:23:53;;;;;;;;;;;22.10;54.80;;;;;;5109883;28;19931;-63
2023/09/04 10:26:21;;;;;;;;;;;22.10;54.80;;;;;;5105196;28;19924;-58
2023/09/04 10:28:49;;;;;;;;;;;22.10;54.80;;;;;;5106211;28;19924;-58
2023/09/04 10:31:17;;;;;;;;;;;22.10;54.80;;;;;;5096114;28;19935;-58
2023/09/04 10:33:44;;;;;;;;;;;22.10;54.80;;;;;;5105956;28;19924;-58
2023/09/04 10:36:11;;;;;;;;;;;22.10;54.80;;;;;;5121448;27;20165;-59
2023/09/04 10:38:38;;;;;;;;;;;22.10;54.80;;;;;;5113206;28;19924;-58
2023/09/04 10:41:05;;;;;;;;;;;22.20;54.90;;;;;;5104010;28;19924;-61
2023/09/04 10:43:41;;;;;;;;;;;22.20;54.90;;;;;;5094615;28;19920;-61
2023/09/04 10:46:07;;;;;;;;;;;22.10;54.80;;;;;;5095912;28;19924;-59
2023/09/04 10:48:42;;;;;;;;;;;22.10;54.80;;;;;;5093941;28;19935;-57
2023/09/04 10:51:27;;;;;;;;;;;22.10;54.80;;;;;;5078166;28;19950;-59
2023/09/04 10:53:54;;;;;;;;;;;22.20;54.90;;;;;;5083020;28;19978;-59
2023/09/04 10:56:21;;;;;;;;;;;22.20;54.90;;;;;;5099363;28;19931;-59
2023/09/04 10:59:00;;;;;;;;;;;22.10;54.80;;;;;;5107665;28;19924;-59
2023/09/04 11:01:34;;;;;;;;;;;22.20;54.90;;;;;;5086328;28;19924;-58
2023/09/04 11:04:03;;;;;;;;;;;22.10;54.80;;;;;;5102938;28;19928;-60
2023/09/04 11:06:30;;;;;;;;;;;22.20;54.90;;;;;;5099892;28;19924;-58
2023/09/04 11:08:56;;;;;;;;;;;22.20;54.90;;;;;;5093836;28;19924;-61
2023/09/04 11:11:26;;;;;;;;;;;22.20;54.90;;;;;;5096774;28;19935;-57
2023/09/04 11:13:57;;;;;;;;;;;22.10;54.80;;;;;;5101535;28;19936;-62
2023/09/04 11:16:24;;;;;;;;;;;22.10;54.80;;;;;;5097499;28;19958;-61
2023/09/04 11:19:00;;;;;;;;;;;22.10;54.80;;;;;;5093706;28;19924;-60
2023/09/04 11:21:32;;;;;;;;;;;22.20;54.90;;;;;;5108409;28;19924;-58
2023/09/04 11:23:59;;;;;;;;;;;22.20;54.90;;;;;;5109737;28;19931;-60
2023/09/04 11:26:26;;;;;;;;;;;22.20;55.50;;;;;;5098376;28;19928;-60
2023/09/04 11:28:52;;;;;;;;;;;22.20;54.90;;;;;;5091585;28;19927;-59
2023/09/04 11:31:21;;;;;;;;;;;22.10;54.80;;;;;;5089838;28;20265;-59
2023/09/04 11:33:48;;;;;;;;;;;22.10;54.80;;;;;;5098670;28;19966;-58
2023/09/04 11:36:15;;;;;;;;;;;22.20;54.90;;;;;;5086139;28;19984;-58
2023/09/04 11:38:43;;;;;;;;;;;22.20;54.90;;;;;;5103890;28;19935;-58
2023/09/04 11:41:16;;;;;;;;;;;22.10;54.80;;;;;;5091378;28;20034;-61
2023/09/04 11:43:44;;;;;;;;;;;22.20;54.90;;;;;;5090664;28;19928;-60
2023/09/04 11:46:11;;;;;;;;;;;22.10;54.80;;;;;;5090021;28;19932;-61
2023/09/04 11:48:38;;;;;;;;;;;22.20;54.90;;;;;;5098863;28;19947;-58
2023/09/04 11:51:07;;;;;;;;;;;22.10;55.40;;;;;;5086344;28;19974;-60
2023/09/04 11:53:33;;;;;;;;;;;22.10;54.80;;;;;;5104686;28;19923;-59
2023/09/04 11:56:03;;;;;;;;;;;22.20;54.90;;;;;;5091889;28;19924;-64
2023/09/04 11:58:33;;;;;;;;;;;22.20;54.90;;;;;;5089603;28;22704;-58
2023/09/04 12:01:00;;;;;;;;;;;22.20;54.80;;;;;;5091254;28;19928;-61
2023/09/04 12:03:27;;;;;;;;;;;22.20;54.90;;;;;;5099076;28;19967;-59
2023/09/04 12:05:53;;;;;;;;;;;22.20;54.90;;;;;;5079727;28;19970;-64
2023/09/04 12:08:20;;;;;;;;;;;22.20;54.90;;;;;;5089691;28;19950;-58
2023/09/04 12:10:47;;;;;;;;;;;22.20;54.80;;;;;;5089202;28;19934;-58
2023/09/04 12:13:15;;;;;;;;;;;22.20;54.90;;;;;;5090136;28;19928;-59
2023/09/04 12:15:42;;;;;;;;;;;22.20;54.90;;;;;;5091001;28;19932;-58
2023/09/04 12:18:10;;;;;;;;;;;22.20;54.90;;;;;;5089078;28;19928;-62
2023/09/04 12:20:37;;;;;;;;;;;22.20;54.90;;;;;;5089635;28;19924;-61
2023/09/04 12:23:04;;;;;;;;;;;22.20;54.90;;;;;;5090309;28;19928;-58
2023/09/04 12:25:34;;;;;;;;;;;22.20;54.90;;;;;;5097404;28;19924;-61
2023/09/04 12:28:01;;;;;;;;;;;22.20;54.90;;;;;;5099761;28;19973;-62
2023/09/04 12:30:30;;;;;;;;;;;22.20;54.90;;;;;;5091262;28;19924;-59
2023/09/04 12:32:57;;;;;;;;;;;22.20;54.90;;;;;;5099910;28;19928;-60
2023/09/04 12:35:24;;;;;;;;;;;22.20;54.90;;;;;;5098362;28;19924;-59
2023/09/04 12:37:53;;;;;;;;;;;22.20;54.90;;;;;;5106378;28;19924;-61
2023/09/04 12:40:21;;;;;;;;;;;22.20;54.90;;;;;;5087074;28;19927;-60
2023/09/04 12:42:47;;;;;;;;;;;22.20;54.90;;;;;;5098312;28;19946;-58
2023/09/04 12:45:14;;;;;;;;;;;22.20;54.90;;;;;;5101572;28;19924;-59
2023/09/04 12:47:42;;;;;;;;;;;22.20;54.90;;;;;;5103657;28;19935;-60
2023/09/04 12:50:09;;;;;;;;;;;22.20;54.90;;;;;;5093804;28;19931;-60
2023/09/04 12:52:36;;;;;;;;;;;22.20;54.90;;;;;;5093578;28;19928;-58
2023/09/04 12:55:03;;;;;;;;;;;22.20;54.90;;;;;;5093385;28;19956;-61
2023/09/04 12:57:29;;;;;;;;;;;22.20;54.90;;;;;;5110418;28;19928;-59
2023/09/04 12:59:56;;;;;;;;;;;22.20;54.90;;;;;;5093068;28;19986;-60
2023/09/04 13:02:23;;;;;;;;;;;22.20;54.90;;;;;;5091984;28;19924;-62
2023/09/04 13:04:51;;;;;;;;;;;22.20;54.90;;;;;;5094599;28;19931;-60
2023/09/04 13:07:18;;;;;;;;;;;22.20;54.90;;;;;;5097540;28;19923;-59
2023/09/04 13:09:44;;;;;;;;;;;22.20;54.90;;;;;;5106298;28;19942;-58
2023/09/04 13:12:11;;;;;;;;;;;22.20;55.00;;;;;;5091649;28;19924;-60
2023/09/04 13:14:38;;;;;;;;;;;22.20;54.90;;;;;;5092900;28;19925;-58
2023/09/04 13:17:05;;;;;;;;;;;22.20;54.90;;;;;;5094531;28;19988;-60
2023/09/04 13:19:32;;;;;;;;;;;22.30;55.00;;;;;;5097943;28;19932;-64
2023/09/04 13:22:00;;;;;;;;;;;22.30;55.00;;;;;;5092664;28;19925;-61
2023/09/04 13:24:27;;;;;;;;;;;22.30;55.00;;;;;;5093193;28;19924;-59
2023/09/04 13:26:54;;;;;;;;;;;22.20;55.00;;;;;;5093064;28;19969;-59
2023/09/04 13:29:20;;;;;;;;;;;22.30;55.10;;;;;;5092904;28;20266;-59
2023/09/04 13:31:47;;;;;;;;;;;22.20;54.90;;;;;;5095055;28;19931;-58
2023/09/04 13:34:14;;;;;;;;;;;22.20;55.00;;;;;;5088146;28;19949;-61
2023/09/04 13:36:41;;;;;;;;;;;22.30;55.00;;;;;;5092973;28;19924;-58
2023/09/04 13:39:09;;;;;;;;;;;22.30;55.00;;;;;;5110849;28;19924;-61
2023/09/04 13:41:36;;;;;;;;;;;22.20;54.90;;;;;;5105268;28;19935;-63
2023/09/04 13:44:03;;;;;;;;;;;22.20;55.00;;;;;;5094187;28;19931;-58
2023/09/04 13:46:30;;;;;;;;;;;22.30;55.00;;;;;;5093511;28;19928;-59
2023/09/04 13:48:56;;;;;;;;;;;22.30;55.00;;;;;;5110134;28;19949;-60
2023/09/04 13:51:23;;;;;;;;;;;22.30;55.00;;;;;;5095574;28;19966;-58
2023/09/04 13:53:50;;;;;;;;;;;22.30;55.00;;;;;;5091738;28;19924;-61
2023/09/04 13:56:18;;;;;;;;;;;22.20;54.90;;;;;;5112918;27;19920;-58
2023/09/04 13:58:45;;;;;;;;;;;22.20;55.10;;;;;;5110318;28;19924;-58
2023/09/04 14:01:15;;;;;;;;;;;22.20;55.00;;;;;;5102013;28;19924;-60
2023/09/04 14:03:42;;;;;;;;;;;22.30;55.10;;;;;;5116247;27;19924;-59
2023/09/04 14:06:09;;;;;;;;;;;22.30;55.10;;;;;;5099557;28;19928;-59
2023/09/04 14:08:36;;;;;;;;;;;22.30;55.10;;;;;;5091256;28;19935;-63
2023/09/04 14:11:03;;;;;;;;;;;22.30;55.10;;;;;;5109079;28;19924;-61
2023/09/04 14:13:31;;;;;;;;;;;22.30;55.10;;;;;;5092354;28;19920;-58
2023/09/04 14:15:58;;;;;;;;;;;22.30;55.10;;;;;;5110761;28;19924;-62